sensor_id;sensor_type;location;lat;lon;timestamp;temperature;humidity
44121;DHT22;29783;52.504;13.478;2023-08-31T04:59:51;14.30;90.00
44121;DHT22;29783;52.504;13.478;2023-08-31T05:02:17;14.30;89.90
44121;DHT22;29783;52.504;13.478;2023-08-31T05:04:44;14.20;90.30
44121;DHT22;29783;52.504;13.478;2023-08-31T05:07:11;14.20;90.60
44121;DHT22;29783;52.504;13.478;2023-08-31T05:09:37;14.20;90.90
44121;DHT22;29783;52.504;13.478;2023-08-31T05:12:03;14.20;90.60
44121;DHT22;29783;52.504;13.478;2023-08-31T05:14:30;14.20;90.60
44121;DHT22;29783;52.504;13.478;2023-08-31T05:16:56;14.30;90.70
44121;DHT22;29783;52.504;13.478;2023-08-31T05:19:22;14.30;90.70
44121;DHT22;29783;52.504;13.478;2023-08-31T05:21:48;14.30;90.50
44121;DHT22;29783;52.504;13.478;2023-08-31T05:24:13;14.30;90.30
44121;DHT22;29783;52.504;13.478;2023-08-31T05:26:39;14.40;90.20
44121;DHT22;29783;52.504;13.478;2023-08-31T05:29:05;14.50;89.90
44121;DHT22;29783;52.504;13.478;2023-08-31T05:31:32;14.50;89.90
44121;DHT22;29783;52.504;13.478;2023-08-31T05:33:57;14.60;89.00
44121;DHT22;29783;52.504;13.478;2023-08-31T05:36:25;14.50;89.50
44121;DHT22;29783;52.504;13.478;2023-08-31T05:38:51;14.60;89.10
44121;DHT22;29783;52.504;13.478;2023-08-31T05:41:17;14.60;89.20
44121;DHT22;29783;52.504;13.478;2023-08-31T05:43:43;14.60;89.40
44121;DHT22;29783;52.504;13.478;2023-08-31T05:46:08;14.60;89.10
44121;DHT22;29783;52.504;13.478;2023-08-31T05:48:35;14.50;89.30
44121;DHT22;29783;52.504;13.478;2023-08-31T05:51:01;14.60;89.00
44121;DHT22;29783;52.504;13.478;2023-08-31T05:53:30;14.60;89.10
44121;DHT22;29783;52.504;13.478;2023-08-31T05:55:57;14.60;89.00
44121;DHT22;29783;52.504;13.478;2023-08-31T05:58:33;14.60;89.10
44121;DHT22;29783;52.504;13.478;2023-08-31T06:01:00;14.60;88.80
44121;DHT22;29783;52.504;13.478;2023-08-31T06:03:26;14.70;88.50
44121;DHT22;29783;52.504;13.478;2023-08-31T06:05:55;14.70;88.80
44121;DHT22;29783;52.504;13.478;2023-08-31T06:08:21;14.70;88.70
44121;DHT22;29783;52.504;13.478;2023-08-31T06:10:46;14.70;88.30
44121;DHT22;29783;52.504;13.478;2023-08-31T06:13:15;14.80;88.40
44121;DHT22;29783;52.504;13.478;2023-08-31T06:15:44;14.80;87.70
44121;DHT22;29783;52.504;13.478;2023-08-31T06:18:13;14.90;87.30
44121;DHT22;29783;52.504;13.478;2023-08-31T06:20:39;14.90;87.00
44121;DHT22;29783;52.504;13.478;2023-08-31T06:23:05;14.90;87.40
44121;DHT22;29783;52.504;13.478;2023-08-31T06:25:32;14.90;87.30
44121;DHT22;29783;52.504;13.478;2023-08-31T06:27:58;15.00;87.40
44121;DHT22;29783;52.504;13.478;2023-08-31T06:30:23;15.00;87.10
44121;DHT22;29783;52.504;13.478;2023-08-31T06:32:49;15.00;87.10
44121;DHT22;29783;52.504;13.478;2023-08-31T06:35:17;15.00;87.20
44121;DHT22;29783;52.504;13.478;2023-08-31T06:37:44;15.00;87.60
44121;DHT22;29783;52.504;13.478;2023-08-31T06:40:12;15.10;87.60
44121;DHT22;29783;52.504;13.478;2023-08-31T06:42:37;15.10;86.80
44121;DHT22;29783;52.504;13.478;2023-08-31T06:45:04;15.20;87.20
44121;DHT22;29783;52.504;13.478;2023-08-31T06:47:31;15.30;86.90
44121;DHT22;29783;52.504;13.478;2023-08-31T20:12:14;12.70;86.40
44121;DHT22;29783;52.504;13.478;2023-08-31T20:14:40;12.80;86.00
44121;DHT22;29783;52.504;13.478;2023-08-31T20:17:06;12.70;86.00
44121;DHT22;29783;52.504;13.478;2023-08-31T20:19:34;12.70;86.50
44121;DHT22;29783;52.504;13.478;2023-08-31T20:22:00;12.70;85.90
44121;DHT22;29783;52.504;13.478;2023-08-31T20:24:25;12.80;85.60
44121;DHT22;29783;52.504;13.478;2023-08-31T20:26:51;12.80;85.70
44121;DHT22;29783;52.504;13.478;2023-08-31T20:29:18;12.80;85.80
44121;DHT22;29783;52.504;13.478;2023-08-31T20:31:45;12.80;85.90
44121;DHT22;29783;52.504;13.478;2023-08-31T20:34:11;12.70;86.20
44121;DHT22;29783;52.504;13.478;2023-08-31T20:36:37;12.70;86.10
44121;DHT22;29783;52.504;13.478;2023-08-31T20:39:04;12.70;86.30
44121;DHT22;29783;52.504;13.478;2023-08-31T20:41:32;12.70;86.60
44121;DHT22;29783;52.504;13.478;2023-08-31T20:44:03;12.70;86.80
44121;DHT22;29783;52.504;13.478;2023-08-31T20:46:30;12.50;87.20
